Wetterdaten: Sonntag, 15.11.2020
Datum Zeit Temp. Auen Feucht Auen Luftdruck Regen Richtung Richtung Windben
15.11.2020 00:00 1,9 C 89 % 1021,2 hPa 0,0 mm SW 228 3,2 km/h (1 Bft)
15.11.2020 00:05 1,9 C 89 % 1021,2 hPa 0,0 mm SW 228 1,6 km/h (1 Bft)
15.11.2020 00:10 1,9 C 89 % 1021,2 hPa 0,0 mm SW 228 1,6 km/h (1 Bft)
15.11.2020 00:15 1,9 C 89 % 1021,2 hPa 0,0 mm SW 228 0,0 km/h (0 Bft)
15.11.2020 00:20 1,8 C 89 % 1021,1 hPa 0,0 mm SW 228 3,2 km/h (1 Bft)
15.11.2020 00:25 1,8 C 89 % 1021,0 hPa 0,0 mm SW 228 1,6 km/h (1 Bft)
15.11.2020 00:30 1,8 C 89 % 1021,0 hPa 0,0 mm SW 228 0,0 km/h (0 Bft)
15.11.2020 00:35 1,8 C 89 % 1021,0 hPa 0,0 mm SW 228 0,0 km/h (0 Bft)
15.11.2020 00:40 1,7 C 89 % 1021,0 hPa 0,0 mm SW 228 1,6 km/h (1 Bft)
15.11.2020 00:45 1,7 C 89 % 1021,0 hPa 0,0 mm SW 228 1,6 km/h (1 Bft)
15.11.2020 00:50 1,7 C 89 % 1021,1 hPa 0,0 mm SW 228 1,6 km/h (1 Bft)
15.11.2020 00:55 1,7 C 89 % 1021,0 hPa 0,0 mm SW 228 1,6 km/h (1 Bft)
15.11.2020 01:00 1,6 C 89 % 1020,9 hPa 0,0 mm SW 228 0,0 km/h (0 Bft)
15.11.2020 01:05 1,6 C 89 % 1020,9 hPa 0,0 mm SW 228 0,0 km/h (0 Bft)
15.11.2020 01:10 1,5 C 89 % 1021,0 hPa 0,0 mm SW 228 0,0 km/h (0 Bft)
15.11.2020 01:15 1,5 C 90 % 1021,0 hPa 0,0 mm SW 228 3,2 km/h (1 Bft)
15.11.2020 01:20 1,5 C 90 % 1020,9 hPa 0,0 mm SW 228 1,6 km/h (1 Bft)
15.11.2020 01:25 1,4 C 90 % 1021,0 hPa 0,0 mm SW 228 0,0 km/h (0 Bft)
15.11.2020 01:30 1,4 C 90 % 1020,9 hPa 0,0 mm SW 228 0,0 km/h (0 Bft)
15.11.2020 01:35 1,4 C 90 % 1020,9 hPa 0,0 mm SW 228 0,0 km/h (0 Bft)
15.11.2020 01:40 1,4 C 90 % 1020,8 hPa 0,0 mm SW 228 0,0 km/h (0 Bft)
15.11.2020 01:45 1,4 C 90 % 1020,8 hPa 0,0 mm SW 228 0,0 km/h (0 Bft)
15.11.2020 01:50 1,4 C 90 % 1020,8 hPa 0,0 mm W-SW 246 4,8 km/h (1 Bft)
15.11.2020 01:55 1,4 C 90 % 1020,9 hPa 0,0 mm W-SW 246 0,0 km/h (0 Bft)
15.11.2020 02:00 1,4 C 90 % 1020,8 hPa 0,0 mm W-SW 246 0,0 km/h (0 Bft)
15.11.2020 02:05 1,4 C 90 % 1020,8 hPa 0,0 mm W-SW 246 0,0 km/h (0 Bft)
15.11.2020 02:10 1,4 C 90 % 1020,8 hPa 0,0 mm W-SW 246 1,6 km/h (1 Bft)
15.11.2020 02:15 1,3 C 90 % 1020,8 hPa 0,0 mm W-SW 246 0,0 km/h (0 Bft)
15.11.2020 02:20 1,3 C 90 % 1020,8 hPa 0,0 mm W-SW 246 1,6 km/h (1 Bft)
15.11.2020 02:25 1,2 C 90 % 1020,8 hPa 0,0 mm W-SW 246 0,0 km/h (0 Bft)
15.11.2020 02:30 1,2 C 90 % 1020,8 hPa 0,0 mm W-SW 246 0,0 km/h (0 Bft)
15.11.2020 02:35 1,2 C 90 % 1020,7 hPa 0,0 mm W-SW 246 3,2 km/h (1 Bft)
15.11.2020 02:40 1,2 C 90 % 1020,8 hPa 0,0 mm W-SW 246 1,6 km/h (1 Bft)
15.11.2020 02:45 1,1 C 90 % 1020,8 hPa 0,0 mm W-SW 246 1,6 km/h (1 Bft)
15.11.2020 02:50 1,1 C 90 % 1020,7 hPa 0,0 mm W-SW 246 1,6 km/h (1 Bft)
15.11.2020 02:55 1,2 C 90 % 1020,7 hPa 0,0 mm W-SW 246 1,6 km/h (1 Bft)
15.11.2020 03:00 1,2 C 90 % 1020,7 hPa 0,0 mm W-SW 246 0,0 km/h (0 Bft)
15.11.2020 03:05 1,1 C 90 % 1020,7 hPa 0,0 mm W-SW 246 0,0 km/h (0 Bft)
15.11.2020 03:10 1,1 C 90 % 1020,7 hPa 0,0 mm W-SW 246 0,0 km/h (0 Bft)
15.11.2020 03:15 1,1 C 90 % 1020,7 hPa 0,0 mm W-SW 246 0,0 km/h (0 Bft)
15.11.2020 03:20 1,1 C 90 % 1020,6 hPa 0,0 mm W-SW 246 0,0 km/h (0 Bft)
15.11.2020 03:25 1,0 C 90 % 1020,6 hPa 0,0 mm W-SW 246 0,0 km/h (0 Bft)
15.11.2020 03:30 1,0 C 90 % 1020,7 hPa 0,0 mm W-SW 246 0,0 km/h (0 Bft)
15.11.2020 03:35 0,9 C 91 % 1020,7 hPa 0,0 mm W-SW 246 1,6 km/h (1 Bft)
15.11.2020 03:40 0,9 C 90 % 1020,7 hPa 0,0 mm W-SW 246 0,0 km/h (0 Bft)
15.11.2020 03:45 0,8 C 90 % 1020,7 hPa 0,0 mm W-SW 246 0,0 km/h (0 Bft)
15.11.2020 03:50 0,8 C 91 % 1020,7 hPa 0,0 mm W-SW 246 0,0 km/h (0 Bft)
15.11.2020 03:55 0,8 C 91 % 1020,7 hPa 0,0 mm W-SW 246 0,0 km/h (0 Bft)
15.11.2020 04:00 0,7 C 91 % 1020,6 hPa 0,0 mm W-SW 246 0,0 km/h (0 Bft)
15.11.2020 04:05 0,7 C 91 % 1020,6 hPa 0,0 mm W-SW 246 0,0 km/h (0 Bft)
15.11.2020 04:10 0,6 C 90 % 1020,6 hPa 0,0 mm W-SW 246 0,0 km/h (0 Bft)
15.11.2020 04:15 0,6 C 90 % 1020,6 hPa 0,0 mm W-SW 246 0,0 km/h (0 Bft)
15.11.2020 04:20 0,5 C 90 % 1020,6 hPa 0,0 mm W-SW 246 0,0 km/h (0 Bft)
15.11.2020 04:25 0,5 C 91 % 1020,5 hPa 0,0 mm W-SW 246 0,0 km/h (0 Bft)
15.11.2020 04:30 0,4 C 91 % 1020,6 hPa 0,0 mm W-SW 246 0,0 km/h (0 Bft)
15.11.2020 04:35 0,4 C 91 % 1020,6 hPa 0,0 mm W-SW 246 0,0 km/h (0 Bft)
15.11.2020 04:40 0,4 C 91 % 1020,6 hPa 0,0 mm W-SW 246 0,0 km/h (0 Bft)
15.11.2020 04:45 0,4 C 91 % 1020,6 hPa 0,0 mm W-SW 246 0,0 km/h (0 Bft)
15.11.2020 04:50 0,4 C 91 % 1020,5 hPa 0,0 mm W-SW 246 0,0 km/h (0 Bft)
15.11.2020 04:55 0,4 C 91 % 1020,6 hPa 0,0 mm W-SW 246 0,0 km/h (0 Bft)
15.11.2020 05:00 0,4 C 91 % 1020,6 hPa 0,0 mm W-SW 246 1,6 km/h (1 Bft)
15.11.2020 05:05 0,4 C 91 % 1020,5 hPa 0,0 mm W-SW 246 0,0 km/h (0 Bft)
15.11.2020 05:10 0,4 C 91 % 1020,6 hPa 0,0 mm W-SW 246 0,0 km/h (0 Bft)
15.11.2020 05:15 0,4 C 91 % 1020,6 hPa 0,0 mm W-SW 246 0,0 km/h (0 Bft)
15.11.2020 05:20 0,4 C 91 % 1020,6 hPa 0,0 mm W-SW 246 0,0 km/h (0 Bft)
15.11.2020 05:25 0,3 C 91 % 1020,6 hPa 0,0 mm W-SW 246 0,0 km/h (0 Bft)
15.11.2020 05:30 0,3 C 91 % 1020,6 hPa 0,0 mm W-SW 246 0,0 km/h (0 Bft)
15.11.2020 05:35 0,3 C 91 % 1020,6 hPa 0,0 mm W-SW 246 0,0 km/h (0 Bft)
15.11.2020 05:40 0,2 C 91 % 1020,6 hPa 0,0 mm W-SW 246 0,0 km/h (0 Bft)
15.11.2020 05:45 0,2 C 91 % 1020,6 hPa 0,0 mm W-SW 246 0,0 km/h (0 Bft)
15.11.2020 05:50 0,2 C 91 % 1020,6 hPa 0,0 mm W-SW 246 0,0 km/h (0 Bft)
15.11.2020 05:55 0,1 C 91 % 1020,6 hPa 0,0 mm W-SW 246 0,0 km/h (0 Bft)
15.11.2020 06:00 0,1 C 91 % 1020,5 hPa 0,0 mm W-SW 246 0,0 km/h (0 Bft)
15.11.2020 06:05 0,1 C 91 % 1020,6 hPa 0,0 mm W-SW 246 0,0 km/h (0 Bft)
15.11.2020 06:10 0,1 C 91 % 1020,6 hPa 0,0 mm W-SW 246 0,0 km/h (0 Bft)
15.11.2020 06:15 0,0 C 91 % 1020,6 hPa 0,0 mm W-SW 246 0,0 km/h (0 Bft)
15.11.2020 06:20 0,0 C 91 % 1020,6 hPa 0,0 mm W-SW 246 0,0 km/h (0 Bft)
15.11.2020 06:25 -0,1 C 91 % 1020,7 hPa 0,0 mm W-SW 246 0,0 km/h (0 Bft)
15.11.2020 06:30 -0,1 C 91 % 1020,8 hPa 0,0 mm W-SW 246 0,0 km/h (0 Bft)
15.11.2020 06:35 -0,1 C 91 % 1020,8 hPa 0,0 mm W-SW 246 0,0 km/h (0 Bft)
15.11.2020 06:40 -0,1 C 91 % 1020,8 hPa 0,0 mm W-SW 246 0,0 km/h (0 Bft)
15.11.2020 06:45 -0,2 C 91 % 1020,8 hPa 0,0 mm W-SW 246 0,0 km/h (0 Bft)
15.11.2020 06:50 -0,2 C 91 % 1020,8 hPa 0,0 mm W-SW 246 0,0 km/h (0 Bft)
15.11.2020 06:55 -0,2 C 91 % 1020,9 hPa 0,0 mm W-SW 246 0,0 km/h (0 Bft)
15.11.2020 07:00 -0,2 C 91 % 1020,9 hPa 0,0 mm W-SW 246 0,0 km/h (0 Bft)
15.11.2020 07:05 -0,2 C 91 % 1020,9 hPa 0,0 mm W-SW 246 0,0 km/h (0 Bft)
15.11.2020 07:10 -0,2 C 91 % 1021,0 hPa 0,0 mm W-SW 246 0,0 km/h (0 Bft)
15.11.2020 07:15 -0,2 C 91 % 1021,0 hPa 0,0 mm W-SW 246 0,0 km/h (0 Bft)
15.11.2020 07:20 -0,3 C 91 % 1021,0 hPa 0,0 mm W-SW 246 0,0 km/h (0 Bft)
15.11.2020 07:25 -0,3 C 91 % 1021,1 hPa 0,0 mm W-SW 246 0,0 km/h (0 Bft)
15.11.2020 07:30 -0,3 C 91 % 1021,1 hPa 0,0 mm W-SW 246 0,0 km/h (0 Bft)
15.11.2020 07:35 -0,4 C 91 % 1021,2 hPa 0,0 mm W-SW 246 0,0 km/h (0 Bft)
15.11.2020 07:40 -0,4 C 91 % 1021,3 hPa 0,0 mm W-SW 246 0,0 km/h (0 Bft)
15.11.2020 07:45 -0,4 C 91 % 1021,2 hPa 0,0 mm W-SW 246 0,0 km/h (0 Bft)
15.11.2020 07:50 -0,4 C 91 % 1021,2 hPa 0,0 mm W-SW 246 0,0 km/h (0 Bft)
15.11.2020 07:55 -0,4 C 91 % 1021,2 hPa 0,0 mm W-SW 246 0,0 km/h (0 Bft)
15.11.2020 08:00 -0,4 C 91 % 1021,3 hPa 0,0 mm W-SW 246 0,0 km/h (0 Bft)
15.11.2020 08:05 -0,4 C 92 % 1021,4 hPa 0,0 mm W-SW 246 0,0 km/h (0 Bft)
15.11.2020 08:10 -0,2 C 92 % 1021,4 hPa 0,0 mm W-SW 246 0,0 km/h (0 Bft)
15.11.2020 08:15 -0,2 C 92 % 1021,5 hPa 0,0 mm W-SW 246 0,0 km/h (0 Bft)
15.11.2020 08:20 -0,1 C 92 % 1021,5 hPa 0,0 mm W-SW 246 0,0 km/h (0 Bft)
15.11.2020 08:25 0,0 C 92 % 1021,5 hPa 0,0 mm W-SW 246 0,0 km/h (0 Bft)
15.11.2020 08:30 0,1 C 92 % 1021,5 hPa 0,0 mm W-SW 246 0,0 km/h (0 Bft)
15.11.2020 08:35 0,2 C 92 % 1021,5 hPa 0,0 mm W-SW 246 0,0 km/h (0 Bft)
15.11.2020 08:40 0,3 C 92 % 1021,5 hPa 0,0 mm W-SW 246 0,0 km/h (0 Bft)
15.11.2020 08:45 0,4 C 92 % 1021,4 hPa 0,0 mm W-SW 246 0,0 km/h (0 Bft)
15.11.2020 08:50 0,5 C 92 % 1021,4 hPa 0,0 mm W-SW 246 0,0 km/h (0 Bft)
15.11.2020 08:55 0,7 C 92 % 1021,4 hPa 0,2 mm W-SW 246 0,0 km/h (0 Bft)
15.11.2020 09:00 0,9 C 92 % 1021,3 hPa 0,0 mm W-SW 246 0,0 km/h (0 Bft)
15.11.2020 09:05 1,2 C 92 % 1021,3 hPa 0,0 mm W-SW 246 0,0 km/h (0 Bft)
15.11.2020 09:10 2,3 C 93 % 1021,4 hPa 0,0 mm S-SO 158 3,2 km/h (1 Bft)
15.11.2020 09:15 3,6 C 93 % 1021,3 hPa 0,0 mm S-SO 158 4,8 km/h (1 Bft)
15.11.2020 09:20 3,9 C 93 % 1021,4 hPa 0,0 mm S-SO 158 4,8 km/h (1 Bft)
15.11.2020 09:25 4,1 C 93 % 1021,2 hPa 0,0 mm S-SO 157 4,8 km/h (1 Bft)
15.11.2020 09:30 4,3 C 93 % 1021,2 hPa 0,0 mm S-SO 157 0,0 km/h (0 Bft)
15.11.2020 09:35 4,2 C 93 % 1021,2 hPa 0,0 mm SO 132 4,8 km/h (1 Bft)
15.11.2020 09:40 4,3 C 93 % 1021,3 hPa 0,0 mm SO 132 4,8 km/h (1 Bft)
15.11.2020 09:45 4,4 C 93 % 1021,2 hPa 0,0 mm SO 144 4,8 km/h (1 Bft)
15.11.2020 09:50 4,3 C 93 % 1021,2 hPa 0,0 mm S-SO 148 8,0 km/h (2 Bft)
15.11.2020 09:55 4,4 C 93 % 1021,2 hPa 0,0 mm SO 132 4,8 km/h (1 Bft)
15.11.2020 10:00 4,4 C 93 % 1021,2 hPa 0,0 mm SO 132 6,4 km/h (2 Bft)
15.11.2020 10:05 4,6 C 93 % 1021,2 hPa 0,0 mm O-SO 105 6,4 km/h (2 Bft)
15.11.2020 10:10 4,7 C 93 % 1021,1 hPa 0,0 mm O-SO 122 8,0 km/h (2 Bft)
15.11.2020 10:15 4,7 C 93 % 1021,0 hPa 0,0 mm O-SO 113 6,4 km/h (2 Bft)
15.11.2020 10:20 4,6 C 93 % 1021,0 hPa 0,0 mm O-SO 116 8,0 km/h (2 Bft)
15.11.2020 10:25 4,4 C 93 % 1021,0 hPa 0,0 mm SO 126 8,0 km/h (2 Bft)
15.11.2020 10:30 4,4 C 93 % 1020,9 hPa 0,0 mm O-SO 108 8,0 km/h (2 Bft)
15.11.2020 10:35 4,4 C 93 % 1020,9 hPa 0,0 mm O-SO 119 8,0 km/h (2 Bft)
15.11.2020 10:40 4,7 C 94 % 1020,8 hPa 0,0 mm O 93 11,3 km/h (2 Bft)
15.11.2020 10:45 4,8 C 94 % 1020,8 hPa 0,0 mm O-SO 109 11,3 km/h (2 Bft)
15.11.2020 10:50 4,8 C 94 % 1020,7 hPa 0,0 mm O-SO 121 8,0 km/h (2 Bft)
15.11.2020 10:55 4,9 C 94 % 1020,6 hPa 0,0 mm O-SO 114 11,3 km/h (2 Bft)
15.11.2020 11:00 5,1 C 94 % 1020,6 hPa 0,0 mm SO 134 9,7 km/h (2 Bft)
15.11.2020 11:05 5,2 C 94 % 1020,5 hPa 0,0 mm SO 133 11,3 km/h (2 Bft)
15.11.2020 11:10 5,1 C 94 % 1020,4 hPa 0,0 mm O-SO 119 12,9 km/h (3 Bft)
15.11.2020 11:15 5,1 C 94 % 1020,4 hPa 0,0 mm SO 125 8,0 km/h (2 Bft)
15.11.2020 11:20 5,3 C 94 % 1020,4 hPa 0,0 mm O-SO 117 6,4 km/h (2 Bft)
15.11.2020 11:25 5,5 C 94 % 1020,3 hPa 0,0 mm O-SO 109 8,0 km/h (2 Bft)
15.11.2020 11:30 5,9 C 94 % 1020,2 hPa 0,0 mm SO 141 8,0 km/h (2 Bft)
15.11.2020 11:35 6,2 C 94 % 1020,1 hPa 0,0 mm O 90 11,3 km/h (2 Bft)
15.11.2020 11:40 6,3 C 94 % 1019,9 hPa 0,0 mm O 91 11,3 km/h (2 Bft)
15.11.2020 11:45 6,6 C 93 % 1019,7 hPa 0,0 mm SO 135 11,3 km/h (2 Bft)
15.11.2020 11:50 6,9 C 93 % 1019,6 hPa 0,0 mm O-NO 71 12,9 km/h (3 Bft)
15.11.2020 11:55 7,1 C 93 % 1019,6 hPa 0,0 mm O 81 12,9 km/h (3 Bft)
15.11.2020 12:00 7,3 C 93 % 1019,5 hPa 0,0 mm O 93 12,9 km/h (3 Bft)
15.11.2020 12:05 7,6 C 93 % 1019,3 hPa 0,0 mm O-SO 115 12,9 km/h (3 Bft)
15.11.2020 12:10 7,7 C 92 % 1019,2 hPa 0,0 mm O 91 14,5 km/h (3 Bft)
15.11.2020 12:15 7,7 C 92 % 1019,1 hPa 0,0 mm O 90 14,5 km/h (3 Bft)
15.11.2020 12:20 7,8 C 91 % 1018,9 hPa 0,0 mm O 82 16,1 km/h (3 Bft)
15.11.2020 12:25 7,7 C 91 % 1018,8 hPa 0,0 mm O-SO 111 14,5 km/h (3 Bft)
15.11.2020 12:30 7,7 C 91 % 1018,7 hPa 0,0 mm O 79 14,5 km/h (3 Bft)
15.11.2020 12:35 7,8 C 91 % 1018,5 hPa 0,0 mm O 93 17,7 km/h (3 Bft)
15.11.2020 12:40 7,9 C 90 % 1018,4 hPa 0,0 mm O 80 14,5 km/h (3 Bft)
15.11.2020 12:45 7,9 C 90 % 1018,4 hPa 0,0 mm O-SO 115 14,5 km/h (3 Bft)
15.11.2020 12:50 8,1 C 90 % 1018,3 hPa 0,0 mm O 80 14,5 km/h (3 Bft)
15.11.2020 12:55 8,1 C 90 % 1018,1 hPa 0,0 mm O-SO 107 16,1 km/h (3 Bft)
15.11.2020 13:00 8,1 C 89 % 1018,0 hPa 0,0 mm O 88 16,1 km/h (3 Bft)
15.11.2020 13:05 8,1 C 89 % 1017,9 hPa 0,0 mm O-NO 63 14,5 km/h (3 Bft)
15.11.2020 13:10 8,1 C 89 % 1017,9 hPa 0,0 mm O 90 14,5 km/h (3 Bft)
15.11.2020 13:15 8,1 C 89 % 1017,9 hPa 0,0 mm O 82 12,9 km/h (3 Bft)
15.11.2020 13:20 8,0 C 89 % 1017,8 hPa 0,0 mm O-SO 113 14,5 km/h (3 Bft)
15.11.2020 13:25 8,1 C 89 % 1017,7 hPa 0,0 mm O-SO 114 14,5 km/h (3 Bft)
15.11.2020 13:30 8,1 C 89 % 1017,5 hPa 0,0 mm O 95 16,1 km/h (3 Bft)
15.11.2020 13:35 8,1 C 89 % 1017,5 hPa 0,0 mm O 96 16,1 km/h (3 Bft)
15.11.2020 13:40 7,9 C 89 % 1017,4 hPa 0,0 mm O-SO 109 17,7 km/h (3 Bft)
15.11.2020 13:45 7,8 C 89 % 1017,4 hPa 0,0 mm O-SO 105 16,1 km/h (3 Bft)
15.11.2020 13:50 7,8 C 89 % 1017,3 hPa 0,0 mm O-SO 111 14,5 km/h (3 Bft)
15.11.2020 13:55 7,6 C 89 % 1017,1 hPa 0,0 mm O 96 17,7 km/h (3 Bft)
15.11.2020 14:00 7,4 C 89 % 1017,1 hPa 0,0 mm O-NO 74 16,1 km/h (3 Bft)
15.11.2020 14:05 7,4 C 89 % 1017,1 hPa 0,0 mm O 81 16,1 km/h (3 Bft)
15.11.2020 14:10 7,2 C 89 % 1017,1 hPa 0,0 mm O 84 20,9 km/h (4 Bft)
15.11.2020 14:15 7,0 C 89 % 1017,0 hPa 0,0 mm O-NO 78 19,3 km/h (3 Bft)
15.11.2020 14:20 6,8 C 89 % 1016,9 hPa 0,0 mm O 97 17,7 km/h (3 Bft)
15.11.2020 14:25 6,7 C 89 % 1016,9 hPa 0,0 mm O 97 16,1 km/h (3 Bft)
15.11.2020 14:30 6,6 C 90 % 1016,8 hPa 0,0 mm O-NO 75 16,1 km/h (3 Bft)
15.11.2020 14:35 6,5 C 90 % 1016,7 hPa 0,0 mm O 87 16,1 km/h (3 Bft)
15.11.2020 14:40 6,4 C 90 % 1016,7 hPa 0,0 mm O 100 17,7 km/h (3 Bft)
15.11.2020 14:45 6,3 C 90 % 1016,7 hPa 0,0 mm O-SO 117 16,1 km/h (3 Bft)
15.11.2020 14:50 6,2 C 90 % 1016,7 hPa 0,0 mm O-SO 123 16,1 km/h (3 Bft)
15.11.2020 14:55 6,1 C 90 % 1016,7 hPa 0,0 mm O-NO 71 16,1 km/h (3 Bft)
15.11.2020 15:00 5,9 C 91 % 1016,6 hPa 0,0 mm O-SO 102 17,7 km/h (3 Bft)
15.11.2020 15:05 5,9 C 91 % 1016,5 hPa 0,0 mm O 90 16,1 km/h (3 Bft)
15.11.2020 15:10 5,8 C 91 % 1016,4 hPa 0,0 mm O 101 17,7 km/h (3 Bft)
15.11.2020 15:15 5,7 C 91 % 1016,3 hPa 0,0 mm O 86 20,9 km/h (4 Bft)
15.11.2020 15:20 5,7 C 91 % 1016,3 hPa 0,0 mm O-NO 76 17,7 km/h (3 Bft)
15.11.2020 15:25 5,6 C 91 % 1016,3 hPa 0,0 mm O 84 20,9 km/h (4 Bft)
15.11.2020 15:30 5,6 C 92 % 1016,2 hPa 0,0 mm O-NO 62 19,3 km/h (3 Bft)
15.11.2020 15:35 5,4 C 92 % 1016,2 hPa 0,0 mm O-SO 112 19,3 km/h (3 Bft)
15.11.2020 15:40 5,4 C 92 % 1016,1 hPa 0,0 mm O-NO 69 20,9 km/h (4 Bft)
15.11.2020 15:45 5,4 C 92 % 1016,0 hPa 0,0 mm O-NO 74 22,5 km/h (4 Bft)
15.11.2020 15:50 5,3 C 92 % 1016,0 hPa 0,0 mm O 98 17,7 km/h (3 Bft)
15.11.2020 15:55 5,3 C 92 % 1015,9 hPa 0,0 mm O-NO 77 19,3 km/h (3 Bft)
15.11.2020 16:00 5,3 C 92 % 1015,8 hPa 0,0 mm O-NO 76 20,9 km/h (4 Bft)
15.11.2020 16:05 5,2 C 92 % 1015,8 hPa 0,0 mm NO 54 22,5 km/h (4 Bft)
15.11.2020 16:10 5,2 C 92 % 1015,8 hPa 0,0 mm O 80 22,5 km/h (4 Bft)
15.11.2020 16:15 5,2 C 92 % 1015,7 hPa 0,0 mm O 79 22,5 km/h (4 Bft)
15.11.2020 16:20 5,1 C 92 % 1015,6 hPa 0,0 mm O 86 19,3 km/h (3 Bft)
15.11.2020 16:25 5,1 C 92 % 1015,5 hPa 0,0 mm O-NO 75 20,9 km/h (4 Bft)
15.11.2020 16:30 5,1 C 93 % 1015,4 hPa 0,0 mm O-NO 78 17,7 km/h (3 Bft)
15.11.2020 16:35 5,1 C 93 % 1015,4 hPa 0,0 mm O-NO 62 19,3 km/h (3 Bft)
15.11.2020 16:40 5,0 C 92 % 1015,3 hPa 0,0 mm O 88 17,7 km/h (3 Bft)
15.11.2020 16:45 4,9 C 93 % 1015,3 hPa 0,0 mm O-NO 71 17,7 km/h (3 Bft)
15.11.2020 16:50 4,9 C 93 % 1015,2 hPa 0,0 mm NO 34 17,7 km/h (3 Bft)
15.11.2020 16:55 4,8 C 93 % 1015,2 hPa 0,0 mm NO 46 16,1 km/h (3 Bft)
15.11.2020 17:00 4,8 C 93 % 1015,2 hPa 0,0 mm O-NO 65 17,7 km/h (3 Bft)
15.11.2020 17:05 4,8 C 93 % 1015,2 hPa 0,0 mm NO 55 16,1 km/h (3 Bft)
15.11.2020 17:10 4,7 C 93 % 1015,2 hPa 0,0 mm O 86 16,1 km/h (3 Bft)
15.11.2020 17:15 4,7 C 93 % 1015,2 hPa 0,0 mm NO 53 14,5 km/h (3 Bft)
15.11.2020 17:20 4,7 C 93 % 1015,3 hPa 0,0 mm O 81 12,9 km/h (3 Bft)
15.11.2020 17:25 4,7 C 93 % 1015,4 hPa 0,0 mm O-NO 63 11,3 km/h (2 Bft)
15.11.2020 17:30 4,7 C 93 % 1015,5 hPa 0,0 mm O-NO 71 8,0 km/h (2 Bft)
15.11.2020 17:35 4,7 C 93 % 1015,4 hPa 0,0 mm O 93 11,3 km/h (2 Bft)
15.11.2020 17:40 4,7 C 93 % 1015,4 hPa 0,0 mm O 90 11,3 km/h (2 Bft)
15.11.2020 17:45 4,7 C 93 % 1015,4 hPa 0,0 mm O 84 11,3 km/h (2 Bft)
15.11.2020 17:50 4,6 C 93 % 1015,5 hPa 0,0 mm O 93 9,7 km/h (2 Bft)
15.11.2020 17:55 4,6 C 93 % 1015,5 hPa 0,0 mm O 90 9,7 km/h (2 Bft)
15.11.2020 18:00 4,6 C 93 % 1015,6 hPa 0,0 mm O 86 11,3 km/h (2 Bft)
15.11.2020 18:05 4,5 C 93 % 1015,7 hPa 0,0 mm O-SO 109 9,7 km/h (2 Bft)
15.11.2020 18:10 4,5 C 93 % 1015,7 hPa 0,0 mm O 98 9,7 km/h (2 Bft)
15.11.2020 18:15 4,4 C 93 % 1015,7 hPa 0,0 mm O-NO 70 11,3 km/h (2 Bft)
15.11.2020 18:20 4,4 C 93 % 1015,8 hPa 0,0 mm O 95 11,3 km/h (2 Bft)
15.11.2020 18:25 4,4 C 93 % 1015,9 hPa 0,0 mm O 95 9,7 km/h (2 Bft)
15.11.2020 18:30 4,4 C 93 % 1015,9 hPa 0,0 mm O-NO 76 11,3 km/h (2 Bft)
15.11.2020 18:35 4,4 C 93 % 1015,9 hPa 0,0 mm O-NO 70 9,7 km/h (2 Bft)
15.11.2020 18:40 4,3 C 93 % 1016,0 hPa 0,0 mm O-NO 69 9,7 km/h (2 Bft)
15.11.2020 18:45 4,3 C 93 % 1016,0 hPa 0,0 mm O 82 9,7 km/h (2 Bft)
15.11.2020 18:50 4,3 C 93 % 1016,0 hPa 0,0 mm O 79 8,0 km/h (2 Bft)
15.11.2020 18:55 4,3 C 93 % 1015,9 hPa 0,0 mm O-NO 76 9,7 km/h (2 Bft)
15.11.2020 19:00 4,3 C 93 % 1015,9 hPa 0,0 mm O 93 9,7 km/h (2 Bft)
15.11.2020 19:05 4,3 C 93 % 1015,8 hPa 0,0 mm O 86 8,0 km/h (2 Bft)
15.11.2020 19:10 4,3 C 93 % 1015,8 hPa 0,0 mm O-NO 75 9,7 km/h (2 Bft)
15.11.2020 19:15 4,3 C 93 % 1015,9 hPa 0,0 mm O-SO 108 6,4 km/h (2 Bft)
15.11.2020 19:20 4,3 C 93 % 1016,1 hPa 0,0 mm O-SO 108 3,2 km/h (1 Bft)
15.11.2020 19:25 4,3 C 93 % 1016,2 hPa 0,0 mm O-SO 108 1,6 km/h (1 Bft)
15.11.2020 19:30 4,2 C 93 % 1016,2 hPa 0,0 mm O-SO 109 4,8 km/h (1 Bft)
15.11.2020 19:35 4,2 C 93 % 1016,1 hPa 0,0 mm S-SO 167 6,4 km/h (2 Bft)
15.11.2020 19:40 4,2 C 93 % 1016,2 hPa 0,0 mm S-SO 167 4,8 km/h (1 Bft)
15.11.2020 19:45 4,2 C 93 % 1016,3 hPa 0,0 mm S-SO 167 4,8 km/h (1 Bft)
15.11.2020 19:50 4,1 C 93 % 1016,3 hPa 0,0 mm S-SW 196 3,2 km/h (1 Bft)
15.11.2020 19:55 4,1 C 93 % 1016,3 hPa 0,0 mm S-SW 196 3,2 km/h (1 Bft)
15.11.2020 20:00 4,1 C 93 % 1016,2 hPa 0,0 mm S-SW 196 1,6 km/h (1 Bft)
15.11.2020 20:05 4,1 C 93 % 1016,2 hPa 0,0 mm S-SW 196 3,2 km/h (1 Bft)
15.11.2020 20:10 4,0 C 93 % 1016,1 hPa 0,0 mm S-SW 196 3,2 km/h (1 Bft)
15.11.2020 20:15 3,9 C 93 % 1016,1 hPa 0,0 mm S-SW 196 4,8 km/h (1 Bft)
15.11.2020 20:20 3,9 C 93 % 1016,1 hPa 0,0 mm S-SW 196 0,0 km/h (0 Bft)
15.11.2020 20:25 3,8 C 93 % 1016,1 hPa 0,0 mm S-SW 196 0,0 km/h (0 Bft)
15.11.2020 20:30 3,8 C 93 % 1016,1 hPa 0,0 mm S-SW 196 0,0 km/h (0 Bft)
15.11.2020 20:35 3,7 C 93 % 1016,1 hPa 0,0 mm S-SW 195 4,8 km/h (1 Bft)
15.11.2020 20:40 3,7 C 93 % 1016,2 hPa 0,0 mm S-SW 195 3,2 km/h (1 Bft)
15.11.2020 20:45 3,7 C 93 % 1016,1 hPa 0,0 mm S-SW 195 3,2 km/h (1 Bft)
15.11.2020 20:50 3,7 C 93 % 1016,1 hPa 0,0 mm S-SW 195 4,8 km/h (1 Bft)
15.11.2020 20:55 3,7 C 93 % 1016,1 hPa 0,0 mm S-SW 195 4,8 km/h (1 Bft)
15.11.2020 21:00 3,6 C 93 % 1016,2 hPa 0,0 mm S-SW 195 3,2 km/h (1 Bft)
15.11.2020 21:05 3,6 C 93 % 1016,3 hPa 0,0 mm S-SW 195 3,2 km/h (1 Bft)
15.11.2020 21:10 3,6 C 93 % 1016,2 hPa 0,0 mm S-SW 195 4,8 km/h (1 Bft)
15.11.2020 21:15 3,6 C 93 % 1016,2 hPa 0,0 mm S-SW 195 0,0 km/h (0 Bft)
15.11.2020 21:20 3,6 C 93 % 1016,2 hPa 0,0 mm S-SW 195 4,8 km/h (1 Bft)
15.11.2020 21:25 3,6 C 93 % 1016,1 hPa 0,0 mm S-SW 195 4,8 km/h (1 Bft)
15.11.2020 21:30 3,6 C 93 % 1016,1 hPa 0,0 mm S-SW 195 0,0 km/h (0 Bft)
15.11.2020 21:35 3,5 C 93 % 1016,1 hPa 0,0 mm S-SW 195 1,6 km/h (1 Bft)
15.11.2020 21:40 3,5 C 93 % 1016,1 hPa 0,0 mm S-SW 195 4,8 km/h (1 Bft)
15.11.2020 21:45 3,5 C 93 % 1016,1 hPa 0,0 mm S-SW 195 3,2 km/h (1 Bft)
15.11.2020 21:50 3,4 C 93 % 1016,2 hPa 0,0 mm S-SW 195 3,2 km/h (1 Bft)
15.11.2020 21:55 3,4 C 93 % 1016,1 hPa 0,0 mm S-SW 195 3,2 km/h (1 Bft)
15.11.2020 22:00 3,4 C 93 % 1016,0 hPa 0,0 mm S-SO 167 1,6 km/h (1 Bft)
15.11.2020 22:05 3,3 C 93 % 1016,0 hPa 0,0 mm S-SO 165 0,0 km/h (0 Bft)
15.11.2020 22:10 3,3 C 93 % 1016,0 hPa 0,0 mm S-SO 157 0,0 km/h (0 Bft)
15.11.2020 22:15 3,3 C 93 % 1016,0 hPa 0,0 mm S-SO 157 0,0 km/h (0 Bft)
15.11.2020 22:20 3,2 C 93 % 1015,9 hPa 0,0 mm S-SO 157 0,0 km/h (0 Bft)
15.11.2020 22:25 3,2 C 93 % 1015,9 hPa 0,0 mm S-SO 157 0,0 km/h (0 Bft)
15.11.2020 22:30 3,1 C 93 % 1015,8 hPa 0,0 mm S-SO 157 0,0 km/h (0 Bft)
15.11.2020 22:35 3,1 C 93 % 1015,8 hPa 0,0 mm S-SO 157 0,0 km/h (0 Bft)
15.11.2020 22:40 3,0 C 93 % 1015,7 hPa 0,0 mm S-SO 157 0,0 km/h (0 Bft)
15.11.2020 22:45 3,0 C 94 % 1015,8 hPa 0,0 mm S-SO 157 0,0 km/h (0 Bft)
15.11.2020 22:50 3,0 C 94 % 1015,8 hPa 0,0 mm S-SO 157 0,0 km/h (0 Bft)
15.11.2020 22:55 3,0 C 94 % 1015,8 hPa 0,0 mm S-SO 157 0,0 km/h (0 Bft)
15.11.2020 23:00 2,9 C 94 % 1015,7 hPa 0,0 mm S-SO 157 0,0 km/h (0 Bft)
15.11.2020 23:05 2,9 C 94 % 1015,7 hPa 0,0 mm S-SO 157 0,0 km/h (0 Bft)
15.11.2020 23:10 2,9 C 94 % 1015,8 hPa 0,0 mm S-SO 157 0,0 km/h (0 Bft)
15.11.2020 23:15 2,9 C 94 % 1015,8 hPa 0,0 mm S-SO 157 0,0 km/h (0 Bft)
15.11.2020 23:20 2,9 C 94 % 1015,8 hPa 0,0 mm S-SO 157 0,0 km/h (0 Bft)
15.11.2020 23:25 2,9 C 94 % 1015,9 hPa 0,0 mm S-SO 157 0,0 km/h (0 Bft)
15.11.2020 23:30 2,9 C 94 % 1015,7 hPa 0,0 mm S-SO 157 0,0 km/h (0 Bft)
15.11.2020 23:35 2,9 C 94 % 1015,7 hPa 0,0 mm S-SO 157 0,0 km/h (0 Bft)
15.11.2020 23:40 2,9 C 94 % 1015,7 hPa 0,0 mm S-SO 157 0,0 km/h (0 Bft)
15.11.2020 23:45 2,8 C 93 % 1015,8 hPa 0,0 mm S-SO 157 0,0 km/h (0 Bft)
15.11.2020 23:50 2,8 C 93 % 1015,7 hPa 0,0 mm S-SO 157 0,0 km/h (0 Bft)
15.11.2020 23:55 2,8 C 93 % 1015,7 hPa 0,0 mm S-SO 157 0,0 km/h (0 Bft)
_ Min-Zeit 07:35 00:00 16:50 - - - 00:15
Minimum _ -0,4 C 89 % 1015,2 hPa - - - 0,0 km/h (0 Bft)
_ Max-Zeit 12:55 10:40 08:15 08:55 - - 15:45
Maximum _ 8,2 C 94 % 1021,5 hPa 0,2 mm - - 22,5 km/h
O (4 Bft)
Durchschnitt _ 3,3 C 92 % 1018,6 hPa #0,2 mm W-SW - 6,1 km/h (2 Bft)